createdAt,value
2022-08-22T00:00:13.853Z,2.90
2022-08-22T00:01:13.838Z,3.20
2022-08-22T00:02:13.828Z,2.90
2022-08-22T00:02:49.418Z,3.20
2022-08-22T00:02:55.494Z,3.80
2022-08-22T00:02:56.170Z,3.00
2022-08-22T00:02:58.608Z,3.70
2022-08-22T00:03:15.416Z,3.20
2022-08-22T00:03:18.737Z,2.70
2022-08-22T00:04:14.802Z,3.10
2022-08-22T00:05:13.698Z,2.90
2022-08-22T00:06:13.689Z,2.90
2022-08-22T00:07:13.692Z,2.90
2022-08-22T00:08:13.721Z,3.00
2022-08-22T00:09:13.661Z,3.00
2022-08-22T00:10:20.993Z,3.30
2022-08-22T00:11:14.650Z,3.00
2022-08-22T00:12:13.609Z,2.90
2022-08-22T00:13:13.579Z,3.20
2022-08-22T00:14:13.581Z,3.20
2022-08-22T00:15:42.383Z,3.20
2022-08-22T00:16:14.577Z,3.20
2022-08-22T00:17:13.540Z,3.10
2022-08-22T00:18:13.591Z,2.70
2022-08-22T00:19:13.594Z,2.70
2022-08-22T00:20:13.598Z,3.60
2022-08-22T00:21:13.543Z,3.20
2022-08-22T00:22:13.509Z,3.10
2022-08-22T00:23:13.560Z,2.80
2022-08-22T00:24:13.497Z,3.30
2022-08-22T00:25:24.612Z,3.40
2022-08-22T00:26:14.421Z,3.00
2022-08-22T00:27:13.404Z,3.30
2022-08-22T00:28:13.412Z,3.30
2022-08-22T00:29:13.415Z,3.00
2022-08-22T00:30:13.362Z,3.10
2022-08-22T00:31:13.386Z,3.20
2022-08-22T00:32:13.343Z,3.20
2022-08-22T00:33:13.361Z,3.30
2022-08-22T00:34:13.324Z,3.10
2022-08-22T00:35:13.405Z,3.10
2022-08-22T00:36:13.294Z,3.00
2022-08-22T00:37:13.242Z,3.10
2022-08-22T00:38:13.290Z,3.00
2022-08-22T00:39:13.232Z,3.00
2022-08-22T00:40:13.251Z,3.10
2022-08-22T00:41:13.211Z,3.30
2022-08-22T00:42:13.200Z,3.50
2022-08-22T00:43:13.179Z,3.60
2022-08-22T00:44:13.160Z,2.80
2022-08-22T00:45:13.140Z,3.10
2022-08-22T00:46:13.140Z,3.90
2022-08-22T00:47:13.177Z,3.10
2022-08-22T00:48:14.590Z,3.50
2022-08-22T00:49:13.121Z,3.40
2022-08-22T00:50:13.096Z,3.40
2022-08-22T00:51:13.064Z,3.30
2022-08-22T00:52:13.064Z,3.00
2022-08-22T00:53:13.061Z,2.90
2022-08-22T00:54:17.797Z,3.10
2022-08-22T00:55:14.057Z,3.30
2022-08-22T00:56:13.036Z,3.20
2022-08-22T00:57:13.020Z,3.10
2022-08-22T00:58:12.989Z,3.20
2022-08-22T00:59:23.399Z,3.20
2022-08-22T01:00:13.944Z,3.60
2022-08-22T01:01:13.049Z,3.30
2022-08-22T01:02:12.950Z,3.30
2022-08-22T01:03:12.972Z,3.30
2022-08-22T01:04:12.894Z,3.40
2022-08-22T01:05:12.924Z,3.00
2022-08-22T01:06:12.874Z,3.90
2022-08-22T01:07:12.852Z,3.50
2022-08-22T01:08:12.909Z,3.20
2022-08-22T01:09:12.817Z,3.40
2022-08-22T01:10:12.855Z,3.40
2022-08-22T01:11:12.797Z,3.60
2022-08-22T01:12:12.848Z,3.70
2022-08-22T01:13:12.843Z,3.80
2022-08-22T01:14:12.786Z,3.60
2022-08-22T01:15:12.781Z,3.50
2022-08-22T01:16:12.773Z,3.70
2022-08-22T01:17:12.717Z,3.60
2022-08-22T01:18:12.722Z,3.90
2022-08-22T01:19:12.735Z,3.50
2022-08-22T01:20:12.671Z,3.80
2022-08-22T01:21:12.655Z,3.60
2022-08-22T01:22:12.672Z,3.70
2022-08-22T01:23:12.652Z,3.50
2022-08-22T01:24:12.625Z,3.60
2022-08-22T01:25:12.655Z,3.70
2022-08-22T01:26:12.606Z,3.20
2022-08-22T01:27:12.594Z,4.40
2022-08-22T01:28:12.603Z,4.30
2022-08-22T01:29:12.550Z,4.60
2022-08-22T01:30:12.589Z,3.80
2022-08-22T01:31:12.549Z,4.00
2022-08-22T01:32:12.514Z,3.50
2022-08-22T01:33:12.505Z,3.60
2022-08-22T01:34:12.759Z,3.80
2022-08-22T01:35:12.471Z,3.50
2022-08-22T01:36:12.473Z,3.40
2022-08-22T01:37:12.462Z,3.70
2022-08-22T01:38:12.461Z,3.40
2022-08-22T01:39:12.441Z,3.40
2022-08-22T01:40:12.434Z,3.70
2022-08-22T01:41:12.432Z,3.90
2022-08-22T01:42:12.399Z,3.80
2022-08-22T01:43:12.397Z,3.50
2022-08-22T01:44:12.374Z,3.70
2022-08-22T01:45:12.384Z,3.60
2022-08-22T01:46:12.395Z,3.60
2022-08-22T01:47:13.417Z,3.80
2022-08-22T01:48:12.362Z,3.60
2022-08-22T01:49:12.331Z,3.70
2022-08-22T01:50:12.303Z,3.70
2022-08-22T01:51:12.294Z,3.20
2022-08-22T01:52:12.268Z,3.60
2022-08-22T01:53:12.255Z,3.60
2022-08-22T01:54:12.250Z,3.30
2022-08-22T01:55:12.244Z,3.30
2022-08-22T01:56:12.374Z,3.40
2022-08-22T01:57:12.179Z,3.50
2022-08-22T01:58:12.176Z,3.30
2022-08-22T01:59:12.292Z,3.50
2022-08-22T02:00:12.155Z,3.80
2022-08-22T02:01:12.236Z,3.60
2022-08-22T02:02:12.155Z,4.10
2022-08-22T02:03:12.161Z,3.60
2022-08-22T02:04:12.159Z,3.60
2022-08-22T02:05:12.070Z,3.50
2022-08-22T02:06:14.499Z,3.90
2022-08-22T02:07:12.103Z,3.70
2022-08-22T02:08:12.064Z,3.80
2022-08-22T02:09:12.076Z,3.80
2022-08-22T02:10:12.013Z,3.80
2022-08-22T02:11:12.013Z,3.70
2022-08-22T02:12:21.537Z,3.60
2022-08-22T02:13:13.064Z,3.90
2022-08-22T02:14:11.974Z,3.80
2022-08-22T02:15:11.962Z,3.70
2022-08-22T02:16:11.956Z,3.50
2022-08-22T02:17:11.912Z,3.60
2022-08-22T02:18:11.949Z,3.80
2022-08-22T02:19:11.912Z,3.30
2022-08-22T02:20:11.921Z,4.00
2022-08-22T02:21:11.862Z,3.70
2022-08-22T02:22:11.892Z,3.60
2022-08-22T02:23:11.843Z,3.70
2022-08-22T02:24:11.854Z,3.70
2022-08-22T02:25:11.869Z,4.10
2022-08-22T02:26:11.792Z,3.80
2022-08-22T02:27:11.770Z,3.70
2022-08-22T02:28:11.806Z,3.50
2022-08-22T02:29:11.770Z,3.80
2022-08-22T02:30:11.773Z,3.80
2022-08-22T02:31:11.759Z,4.20
2022-08-22T02:32:12.749Z,3.60
2022-08-22T02:33:11.702Z,3.60
2022-08-22T02:34:11.701Z,4.10
2022-08-22T02:35:11.715Z,3.90
2022-08-22T02:36:11.665Z,4.00
2022-08-22T02:37:11.694Z,3.70
2022-08-22T02:38:11.672Z,3.70
2022-08-22T02:39:11.638Z,4.10
2022-08-22T02:40:11.727Z,4.50
2022-08-22T02:41:11.583Z,4.00
2022-08-22T02:42:11.590Z,3.60
2022-08-22T02:43:11.571Z,4.10
2022-08-22T02:44:11.555Z,3.80
2022-08-22T02:45:11.522Z,4.30
2022-08-22T02:46:11.512Z,4.00
2022-08-22T02:47:11.524Z,4.30
2022-08-22T02:48:11.506Z,4.30
2022-08-22T02:49:11.569Z,4.20
2022-08-22T02:50:12.706Z,4.00
2022-08-22T02:51:11.529Z,4.10
2022-08-22T02:52:11.445Z,4.40
2022-08-22T02:53:11.462Z,4.40
2022-08-22T02:54:11.399Z,4.00
2022-08-22T02:55:11.448Z,4.10
2022-08-22T02:56:11.425Z,4.60
2022-08-22T02:57:14.339Z,4.20
2022-08-22T02:58:11.365Z,4.20
2022-08-22T02:59:11.467Z,4.50
2022-08-22T03:00:30.877Z,4.10
2022-08-22T03:01:12.415Z,4.50
2022-08-22T03:02:11.320Z,4.00
2022-08-22T03:03:11.323Z,4.70
2022-08-22T03:04:11.272Z,4.20
2022-08-22T03:05:11.292Z,4.60
2022-08-22T03:06:11.275Z,4.20
2022-08-22T03:07:11.244Z,4.50
2022-08-22T03:08:11.200Z,4.30
2022-08-22T03:09:11.193Z,4.90
2022-08-22T03:10:11.189Z,4.30
2022-08-22T03:11:11.171Z,4.60
2022-08-22T03:12:11.192Z,4.20
2022-08-22T03:13:11.162Z,4.60
2022-08-22T03:14:11.126Z,4.30
2022-08-22T03:15:11.120Z,4.20
2022-08-22T03:16:11.145Z,4.60
2022-08-22T03:17:11.129Z,4.60
2022-08-22T03:18:11.102Z,4.30
2022-08-22T03:19:14.960Z,4.90
2022-08-22T03:20:12.056Z,4.40
2022-08-22T03:21:11.039Z,4.10
2022-08-22T03:22:11.041Z,4.00
2022-08-22T03:23:11.006Z,4.10
2022-08-22T03:24:11.011Z,4.10
2022-08-22T03:25:10.996Z,4.20
2022-08-22T03:26:10.977Z,4.10
2022-08-22T03:27:10.998Z,4.20
2022-08-22T03:28:11.014Z,3.90
2022-08-22T03:29:10.924Z,4.00
2022-08-22T03:30:10.920Z,3.80
2022-08-22T03:31:10.901Z,4.10
2022-08-22T03:32:10.983Z,4.00
2022-08-22T03:33:10.885Z,4.00
2022-08-22T03:34:10.883Z,4.00
2022-08-22T03:35:10.839Z,4.30
2022-08-22T03:36:10.840Z,3.80
2022-08-22T03:37:10.829Z,4.10
2022-08-22T03:38:10.806Z,3.70
2022-08-22T03:39:17.107Z,3.80
2022-08-22T03:40:11.832Z,4.00
2022-08-22T03:41:10.782Z,3.70
2022-08-22T03:42:10.765Z,3.60
2022-08-22T03:43:10.735Z,3.70
2022-08-22T03:44:10.745Z,3.70
2022-08-22T03:45:10.707Z,3.80
2022-08-22T03:46:10.717Z,3.50
2022-08-22T03:47:10.726Z,3.90
2022-08-22T03:48:10.672Z,3.70
2022-08-22T03:49:10.664Z,3.50
2022-08-22T03:50:10.694Z,3.80
2022-08-22T03:51:10.641Z,3.70
2022-08-22T03:52:10.634Z,3.60
2022-08-22T03:53:18.820Z,3.80
2022-08-22T03:54:11.629Z,4.10
2022-08-22T03:55:10.582Z,3.90
2022-08-22T03:56:10.577Z,3.40
2022-08-22T03:57:10.549Z,3.60
2022-08-22T03:58:13.636Z,3.80
2022-08-22T03:59:11.595Z,3.80
2022-08-22T04:00:10.505Z,3.60
2022-08-22T04:01:10.587Z,4.10
2022-08-22T04:02:41.998Z,3.90
2022-08-22T04:03:11.537Z,4.00
2022-08-22T04:04:10.450Z,4.20
2022-08-22T04:05:10.429Z,4.10
2022-08-22T04:06:12.615Z,4.20
2022-08-22T04:07:19.679Z,3.80
2022-08-22T04:08:13.013Z,4.20
2022-08-22T04:09:10.617Z,4.10
2022-08-22T04:10:10.344Z,4.30
2022-08-22T04:11:10.352Z,4.00
2022-08-22T04:12:10.337Z,4.00
2022-08-22T04:13:10.330Z,3.90
2022-08-22T04:14:10.291Z,3.80
2022-08-22T04:15:10.339Z,4.10
2022-08-22T04:16:10.397Z,4.10
2022-08-22T04:17:10.287Z,4.10
2022-08-22T04:18:10.312Z,5.40
2022-08-22T04:19:10.275Z,3.80
2022-08-22T04:20:10.232Z,5.10
2022-08-22T04:21:10.243Z,3.90
2022-08-22T04:22:10.213Z,3.80
2022-08-22T04:23:10.210Z,4.00
2022-08-22T04:24:10.174Z,4.40
2022-08-22T04:25:10.190Z,3.90
2022-08-22T04:26:12.269Z,4.30
2022-08-22T04:27:10.189Z,4.50
2022-08-22T04:28:10.103Z,4.50
2022-08-22T04:29:10.148Z,4.90
2022-08-22T04:30:10.072Z,4.60
2022-08-22T04:31:10.119Z,5.10
2022-08-22T04:32:14.429Z,5.40
2022-08-22T04:33:10.327Z,4.90
2022-08-22T04:34:10.031Z,6.30
2022-08-22T04:35:10.039Z,5.20
2022-08-22T04:36:09.989Z,5.10
2022-08-22T04:37:09.998Z,5.10
2022-08-22T04:38:10.024Z,5.40
2022-08-22T04:39:10.004Z,5.00
2022-08-22T04:40:10.010Z,5.70
2022-08-22T04:41:09.966Z,5.80
2022-08-22T04:42:31.294Z,5.70
2022-08-22T04:43:10.936Z,5.30
2022-08-22T04:44:09.886Z,4.80
2022-08-22T04:45:09.897Z,4.70
2022-08-22T04:46:09.856Z,5.30
2022-08-22T04:47:09.874Z,4.80
2022-08-22T04:48:09.884Z,4.70
2022-08-22T04:49:09.835Z,4.90
2022-08-22T04:50:09.874Z,5.10
2022-08-22T04:51:09.827Z,5.20
2022-08-22T04:52:09.831Z,5.20
2022-08-22T04:53:09.802Z,5.50
2022-08-22T04:54:09.764Z,5.80
2022-08-22T04:55:09.814Z,5.40
2022-08-22T04:56:09.745Z,5.30
2022-08-22T04:57:09.720Z,5.00
2022-08-22T04:58:09.713Z,5.40
2022-08-22T04:59:09.686Z,5.80
2022-08-22T05:00:09.666Z,5.20
2022-08-22T05:01:09.661Z,5.40
2022-08-22T05:02:09.734Z,5.00
2022-08-22T05:03:09.672Z,4.50
2022-08-22T05:04:09.618Z,4.90
2022-08-22T05:05:13.468Z,5.30
2022-08-22T05:06:09.598Z,5.40
2022-08-22T05:07:09.807Z,5.20
2022-08-22T05:08:09.623Z,4.10
2022-08-22T05:09:14.159Z,5.00
2022-08-22T05:10:12.045Z,4.50
2022-08-22T05:11:09.526Z,4.90
2022-08-22T05:12:09.506Z,3.90
2022-08-22T05:13:09.493Z,4.10
2022-08-22T05:14:09.635Z,4.20
2022-08-22T05:15:09.708Z,4.20
2022-08-22T05:16:09.506Z,3.90
2022-08-22T05:17:09.473Z,4.10
2022-08-22T05:18:09.425Z,4.20
2022-08-22T05:19:12.077Z,4.40
2022-08-22T05:20:10.435Z,4.50
2022-08-22T05:21:09.449Z,4.40
2022-08-22T05:22:09.461Z,4.60
2022-08-22T05:23:17.086Z,4.80
2022-08-22T05:24:10.419Z,4.80
2022-08-22T05:25:09.362Z,5.00
2022-08-22T05:26:09.367Z,4.70
2022-08-22T05:27:09.362Z,4.30
2022-08-22T05:28:09.410Z,4.30
2022-08-22T05:29:09.283Z,4.60
2022-08-22T05:30:09.291Z,4.60
2022-08-22T05:31:09.312Z,4.60
2022-08-22T05:32:09.377Z,4.30
2022-08-22T05:33:09.239Z,4.50
2022-08-22T05:34:09.240Z,4.80
2022-08-22T05:35:09.213Z,4.90
2022-08-22T05:36:09.287Z,4.90
2022-08-22T05:37:09.180Z,4.50
2022-08-22T05:38:09.177Z,5.00
2022-08-22T05:39:09.191Z,4.90
2022-08-22T05:40:09.262Z,4.90
2022-08-22T05:41:09.135Z,5.70
2022-08-22T05:42:09.091Z,4.60
2022-08-22T05:43:09.091Z,4.90
2022-08-22T05:44:09.079Z,4.40
2022-08-22T05:45:12.207Z,4.30
2022-08-22T05:46:09.108Z,4.50
2022-08-22T05:47:09.087Z,4.80
2022-08-22T05:48:09.108Z,4.60
2022-08-22T05:49:09.013Z,4.70
2022-08-22T05:50:09.042Z,4.50
2022-08-22T05:51:09.054Z,4.50
2022-08-22T05:52:08.993Z,4.30
2022-08-22T05:53:08.973Z,5.00
2022-08-22T05:54:09.035Z,4.20
2022-08-22T05:55:09.036Z,4.60
2022-08-22T05:56:08.926Z,4.50
2022-08-22T05:57:08.994Z,4.60
2022-08-22T05:58:08.993Z,4.40
2022-08-22T05:59:08.995Z,4.40
2022-08-22T06:00:08.874Z,4.40
2022-08-22T06:01:08.867Z,4.00
2022-08-22T06:02:09.063Z,3.60
2022-08-22T06:03:08.855Z,3.60
2022-08-22T06:04:08.835Z,3.90
2022-08-22T06:05:12.031Z,3.50
2022-08-22T06:06:08.902Z,3.60
2022-08-22T06:07:08.789Z,3.10
2022-08-22T06:08:08.790Z,3.60
2022-08-22T06:09:08.817Z,3.70
2022-08-22T06:10:08.760Z,3.40
2022-08-22T06:11:08.814Z,3.80
2022-08-22T06:12:08.773Z,3.40
2022-08-22T06:13:11.549Z,3.60
2022-08-22T06:14:08.715Z,3.40
2022-08-22T06:15:11.822Z,3.40
2022-08-22T06:16:09.347Z,4.00
2022-08-22T06:17:08.674Z,3.50
2022-08-22T06:18:08.659Z,3.40
2022-08-22T06:19:19.307Z,3.50
2022-08-22T06:20:09.675Z,3.40
2022-08-22T06:21:08.660Z,3.80
2022-08-22T06:22:08.659Z,3.90
2022-08-22T06:23:08.587Z,3.90
2022-08-22T06:24:08.618Z,3.80
2022-08-22T06:25:08.630Z,3.70
2022-08-22T06:26:20.800Z,4.10
2022-08-22T06:27:09.562Z,4.00
2022-08-22T06:28:08.530Z,3.80
2022-08-22T06:29:08.549Z,3.60
2022-08-22T06:30:08.534Z,3.90
2022-08-22T06:31:08.503Z,4.00
2022-08-22T06:32:08.471Z,3.60
2022-08-22T06:33:08.460Z,3.80
2022-08-22T06:34:08.462Z,4.00
2022-08-22T06:35:08.430Z,3.70
2022-08-22T06:36:08.458Z,4.00
2022-08-22T06:37:08.404Z,3.80
2022-08-22T06:38:08.427Z,4.40
2022-08-22T06:39:08.423Z,4.20
2022-08-22T06:40:08.451Z,4.10
2022-08-22T06:41:08.380Z,4.30
2022-08-22T06:42:10.276Z,4.30
2022-08-22T06:43:08.374Z,4.00
2022-08-22T06:44:08.321Z,4.10
2022-08-22T06:45:08.384Z,4.30
2022-08-22T06:46:08.301Z,4.30
2022-08-22T06:47:08.277Z,4.10
2022-08-22T06:48:08.317Z,4.30
2022-08-22T06:49:08.253Z,4.20
2022-08-22T06:50:08.272Z,4.50
2022-08-22T06:51:09.229Z,4.30
2022-08-22T06:52:08.228Z,4.40
2022-08-22T06:53:08.211Z,4.50
2022-08-22T06:54:08.216Z,4.20
2022-08-22T06:55:08.190Z,4.60
2022-08-22T06:56:08.164Z,4.00
2022-08-22T06:57:08.161Z,3.90
2022-08-22T06:58:08.124Z,4.30
2022-08-22T06:59:08.126Z,4.30
2022-08-22T07:00:08.145Z,4.20
2022-08-22T07:01:12.310Z,4.30
2022-08-22T07:02:08.134Z,4.40
2022-08-22T07:03:08.057Z,4.00
2022-08-22T07:04:08.044Z,4.10
2022-08-22T07:05:08.025Z,3.60
2022-08-22T07:06:08.105Z,4.10
2022-08-22T07:07:08.002Z,3.60
2022-08-22T07:08:07.994Z,4.00
2022-08-22T07:09:07.974Z,3.60
2022-08-22T07:10:08.040Z,3.80
2022-08-22T07:11:08.007Z,3.80
2022-08-22T07:12:08.014Z,4.00
2022-08-22T07:13:07.930Z,3.80
2022-08-22T07:14:07.936Z,3.50
2022-08-22T07:15:07.924Z,3.90
2022-08-22T07:16:07.885Z,3.90
2022-08-22T07:17:07.895Z,3.60
2022-08-22T07:18:07.905Z,4.00
2022-08-22T07:19:07.846Z,4.00
2022-08-22T07:20:07.832Z,3.80
2022-08-22T07:21:07.849Z,3.90
2022-08-22T07:22:07.808Z,4.10
2022-08-22T07:23:07.828Z,4.00
2022-08-22T07:24:07.826Z,3.90
2022-08-22T07:25:07.764Z,4.10
2022-08-22T07:26:07.775Z,4.00
2022-08-22T07:27:07.736Z,3.90
2022-08-22T07:28:07.788Z,4.40
2022-08-22T07:29:11.219Z,3.90
2022-08-22T07:30:10.155Z,3.70
2022-08-22T07:31:07.710Z,4.10
2022-08-22T07:32:07.709Z,4.00
2022-08-22T07:33:26.622Z,3.80
2022-08-22T07:34:08.694Z,4.10
2022-08-22T07:35:07.636Z,4.20
2022-08-22T07:36:07.690Z,4.10
2022-08-22T07:37:07.684Z,3.90
2022-08-22T07:38:07.609Z,4.20
2022-08-22T07:39:07.642Z,4.20
2022-08-22T07:40:07.668Z,4.20
2022-08-22T07:41:07.559Z,3.60
2022-08-22T07:42:07.600Z,5.50
2022-08-22T07:43:07.538Z,3.70
2022-08-22T07:44:07.559Z,3.90
2022-08-22T07:45:07.551Z,3.90
2022-08-22T07:46:07.477Z,4.00
2022-08-22T07:47:07.500Z,4.20
2022-08-22T07:48:07.524Z,4.00
2022-08-22T07:49:09.372Z,3.60
2022-08-22T07:50:07.438Z,4.00
2022-08-22T07:51:07.437Z,3.70
2022-08-22T07:52:07.513Z,3.80
2022-08-22T07:53:07.536Z,4.40
2022-08-22T07:54:07.409Z,4.50
2022-08-22T07:55:07.359Z,4.30
2022-08-22T07:56:07.402Z,4.30
2022-08-22T07:57:07.338Z,4.20
2022-08-22T07:58:07.428Z,4.70
2022-08-22T07:59:12.704Z,4.40
2022-08-22T08:00:08.299Z,5.10
2022-08-22T08:01:07.312Z,4.10
2022-08-22T08:02:07.299Z,4.00
2022-08-22T08:03:07.250Z,4.50
2022-08-22T08:04:07.310Z,4.20
2022-08-22T08:05:07.266Z,4.50
2022-08-22T08:06:07.260Z,4.70
2022-08-22T08:07:07.213Z,4.90
2022-08-22T08:08:07.290Z,4.50
2022-08-22T08:09:07.210Z,4.80
2022-08-22T08:10:12.424Z,4.70
2022-08-22T08:11:08.171Z,4.40
2022-08-22T08:12:07.181Z,4.20
2022-08-22T08:13:07.191Z,5.00
2022-08-22T08:14:07.171Z,4.50
2022-08-22T08:15:07.167Z,4.70
2022-08-22T08:16:07.124Z,4.10
2022-08-22T08:17:07.140Z,4.80
2022-08-22T08:18:07.065Z,4.10
2022-08-22T08:19:07.031Z,5.20
2022-08-22T08:20:07.031Z,4.70
2022-08-22T08:21:07.167Z,4.80
2022-08-22T08:22:07.011Z,5.00
2022-08-22T08:23:07.879Z,4.80
2022-08-22T08:24:06.971Z,4.60
2022-08-22T08:25:06.991Z,4.60
2022-08-22T08:26:06.946Z,4.70
2022-08-22T08:27:06.962Z,4.60
2022-08-22T08:28:06.962Z,4.50
2022-08-22T08:29:06.922Z,4.60
2022-08-22T08:30:06.967Z,4.50
2022-08-22T08:31:06.895Z,4.90
2022-08-22T08:32:06.865Z,4.90
2022-08-22T08:33:25.137Z,3.90
2022-08-22T08:34:07.853Z,4.60
2022-08-22T08:35:06.992Z,4.40
2022-08-22T08:36:07.071Z,4.40
2022-08-22T08:37:06.857Z,4.10
2022-08-22T08:38:06.793Z,5.20
2022-08-22T08:39:06.773Z,4.00
2022-08-22T08:40:06.840Z,4.60
2022-08-22T08:41:06.742Z,5.00
2022-08-22T08:42:06.742Z,4.70
2022-08-22T08:43:10.633Z,4.30
2022-08-22T08:44:06.722Z,4.30
2022-08-22T08:45:06.734Z,4.60
2022-08-22T08:46:06.709Z,4.30
2022-08-22T08:47:06.693Z,4.50
2022-08-22T08:48:06.728Z,4.40
2022-08-22T08:49:06.718Z,4.10
2022-08-22T08:50:06.675Z,4.50
2022-08-22T08:51:06.735Z,4.50
2022-08-22T08:52:06.697Z,4.20
2022-08-22T08:53:06.615Z,4.50
2022-08-22T08:54:06.578Z,4.10
2022-08-22T08:55:20.006Z,4.00
2022-08-22T08:56:07.599Z,4.50
2022-08-22T08:57:06.588Z,4.30
2022-08-22T08:58:06.910Z,4.20
2022-08-22T08:59:10.113Z,6.50
2022-08-22T09:00:06.502Z,7.00
2022-08-22T09:01:06.564Z,4.90
2022-08-22T09:02:06.505Z,4.10
2022-08-22T09:03:07.337Z,4.00
2022-08-22T09:04:06.494Z,3.60
2022-08-22T09:05:07.583Z,3.90
2022-08-22T09:06:06.458Z,3.90
2022-08-22T09:07:06.588Z,3.60
2022-08-22T09:08:06.406Z,3.90
2022-08-22T09:09:07.363Z,3.90
2022-08-22T09:10:06.357Z,3.50
2022-08-22T09:11:09.814Z,4.00
2022-08-22T09:12:06.337Z,4.00
2022-08-22T09:13:11.869Z,3.90
2022-08-22T09:14:07.302Z,3.90
2022-08-22T09:15:12.830Z,3.70
2022-08-22T09:16:07.285Z,3.80
2022-08-22T09:17:06.821Z,3.60
2022-08-22T09:18:06.246Z,3.60
2022-08-22T09:19:06.219Z,4.10
2022-08-22T09:20:17.640Z,3.60
2022-08-22T09:21:07.258Z,3.80
2022-08-22T09:22:06.257Z,3.70
2022-08-22T09:23:10.898Z,4.00
2022-08-22T09:24:06.154Z,3.60
2022-08-22T09:25:06.506Z,3.70
2022-08-22T09:26:06.183Z,3.90
2022-08-22T09:27:08.518Z,3.90
2022-08-22T09:28:06.136Z,3.70
2022-08-22T09:29:06.149Z,4.00
2022-08-22T09:30:06.100Z,4.00
2022-08-22T09:31:16.995Z,3.70
2022-08-22T09:32:07.085Z,3.30
2022-08-22T09:33:07.089Z,4.20
2022-08-22T09:34:06.030Z,3.60
2022-08-22T09:35:06.024Z,3.50
2022-08-22T09:36:06.024Z,3.90
2022-08-22T09:37:07.030Z,3.60
2022-08-22T09:38:06.013Z,3.80
2022-08-22T09:39:05.988Z,3.60
2022-08-22T09:40:06.010Z,3.30
2022-08-22T09:41:05.989Z,3.60
2022-08-22T09:42:05.919Z,3.80
2022-08-22T09:43:05.947Z,3.40
2022-08-22T09:44:05.921Z,3.60
2022-08-22T09:45:05.951Z,3.70
2022-08-22T09:46:05.913Z,3.50
2022-08-22T09:47:05.848Z,3.60
2022-08-22T09:48:07.092Z,3.70
2022-08-22T09:49:06.586Z,3.10
2022-08-22T09:50:05.810Z,3.50
2022-08-22T09:51:31.681Z,3.40
2022-08-22T09:52:15.740Z,3.40
2022-08-22T09:53:06.784Z,3.60
2022-08-22T09:54:05.751Z,3.30
2022-08-22T09:55:08.552Z,4.00
2022-08-22T09:56:11.664Z,3.40
2022-08-22T09:57:06.816Z,3.30
2022-08-22T09:58:05.764Z,3.50
2022-08-22T09:59:06.849Z,3.50
2022-08-22T10:00:05.712Z,2.90
2022-08-22T10:01:05.775Z,3.20
2022-08-22T10:02:06.023Z,2.70
2022-08-22T10:03:05.716Z,3.30
2022-08-22T10:04:05.882Z,3.20
2022-08-22T10:05:05.643Z,3.20
2022-08-22T10:06:05.656Z,3.40
2022-08-22T10:07:11.220Z,3.10
2022-08-22T10:08:06.617Z,3.10
2022-08-22T10:09:05.571Z,3.10
2022-08-22T10:10:05.580Z,3.40
2022-08-22T10:11:06.602Z,3.00
2022-08-22T10:12:05.545Z,3.00
2022-08-22T10:13:10.300Z,3.20
2022-08-22T10:14:05.574Z,3.30
2022-08-22T10:15:06.939Z,3.20
2022-08-22T10:16:05.513Z,3.40
2022-08-22T10:17:05.473Z,3.20
2022-08-22T10:18:05.493Z,3.20
2022-08-22T10:19:05.435Z,3.20
2022-08-22T10:20:05.419Z,3.80
2022-08-22T10:21:16.847Z,3.10
2022-08-22T10:22:05.365Z,3.40
2022-08-22T10:23:05.359Z,3.80
2022-08-22T10:24:06.996Z,3.40
2022-08-22T10:25:05.422Z,3.00
2022-08-22T10:26:05.315Z,2.80
2022-08-22T10:27:05.358Z,3.00
2022-08-22T10:28:05.336Z,3.20
2022-08-22T10:29:05.285Z,3.20
2022-08-22T10:30:05.316Z,3.50
2022-08-22T10:31:05.347Z,3.20
2022-08-22T10:32:14.463Z,3.20
2022-08-22T10:33:06.317Z,3.70
2022-08-22T10:34:05.281Z,3.30
2022-08-22T10:35:06.341Z,3.40
2022-08-22T10:36:05.392Z,3.30
2022-08-22T10:37:05.229Z,3.00
2022-08-22T10:38:05.177Z,3.00
2022-08-22T10:39:11.015Z,3.20
2022-08-22T10:40:06.179Z,3.10
2022-08-22T10:41:09.232Z,3.00
2022-08-22T10:42:05.109Z,3.50
2022-08-22T10:43:05.139Z,3.20
2022-08-22T10:44:05.114Z,3.60
2022-08-22T10:45:05.086Z,3.50
2022-08-22T10:46:06.679Z,4.20
2022-08-22T10:47:05.035Z,4.80
2022-08-22T10:48:07.238Z,3.90
2022-08-22T10:49:07.860Z,3.30
2022-08-22T10:50:08.682Z,3.50
2022-08-22T10:51:08.905Z,3.00
2022-08-22T10:52:14.694Z,3.10
2022-08-22T10:53:05.979Z,3.10
2022-08-22T10:54:04.996Z,2.80
2022-08-22T10:55:05.738Z,2.70
2022-08-22T10:56:04.970Z,2.80
2022-08-22T10:57:06.651Z,2.90
2022-08-22T10:58:04.974Z,4.90
2022-08-22T10:59:04.904Z,2.90
2022-08-22T11:00:04.880Z,3.20
2022-08-22T11:01:41.580Z,3.70
2022-08-22T11:02:05.898Z,2.70
2022-08-22T11:03:04.882Z,3.00
2022-08-22T11:04:05.944Z,3.50
2022-08-22T11:05:04.791Z,3.60
2022-08-22T11:06:04.771Z,2.70
2022-08-22T11:07:04.855Z,2.60
2022-08-22T11:08:04.772Z,2.70
2022-08-22T11:09:04.794Z,1.80
2022-08-22T11:10:05.041Z,2.30
2022-08-22T11:11:04.758Z,2.50
2022-08-22T11:12:04.765Z,4.10
2022-08-22T11:13:04.688Z,3.00
2022-08-22T11:14:04.669Z,2.80
2022-08-22T11:15:04.686Z,2.40
2022-08-22T11:16:04.705Z,2.40
2022-08-22T11:17:23.577Z,2.90
2022-08-22T11:18:05.970Z,2.90
2022-08-22T11:19:14.883Z,2.20
2022-08-22T11:20:05.652Z,2.20
2022-08-22T11:21:04.654Z,2.20
2022-08-22T11:22:04.603Z,2.60
2022-08-22T11:23:04.542Z,2.00
2022-08-22T11:24:04.717Z,2.40
2022-08-22T11:25:43.755Z,2.30
2022-08-22T11:26:04.957Z,2.00
2022-08-22T11:27:07.274Z,4.10
2022-08-22T11:28:04.487Z,2.50
2022-08-22T11:29:13.817Z,2.40
2022-08-22T11:30:05.703Z,2.30
2022-08-22T11:31:07.192Z,2.20
2022-08-22T11:32:05.939Z,2.30
2022-08-22T11:33:04.926Z,1.90
2022-08-22T11:34:04.563Z,3.10
2022-08-22T11:35:04.425Z,2.40
2022-08-22T11:36:05.603Z,2.40
2022-08-22T11:37:10.965Z,2.40
2022-08-22T11:38:05.478Z,2.20
2022-08-22T11:39:05.497Z,2.30
2022-08-22T11:40:04.447Z,2.20
2022-08-22T11:41:04.346Z,2.70
2022-08-22T11:42:04.313Z,2.80
2022-08-22T11:43:04.627Z,2.30
2022-08-22T11:44:04.317Z,2.60
2022-08-22T11:45:04.248Z,2.50
2022-08-22T11:46:04.310Z,2.60
2022-08-22T11:47:04.235Z,2.30
2022-08-22T11:48:04.288Z,2.60
2022-08-22T11:49:04.335Z,2.20
2022-08-22T11:50:04.228Z,2.40
2022-08-22T11:51:13.280Z,2.20
2022-08-22T11:52:05.220Z,2.30
2022-08-22T11:53:04.630Z,2.80
2022-08-22T11:54:04.166Z,2.60
2022-08-22T11:55:04.213Z,2.10
2022-08-22T11:56:05.497Z,2.20
2022-08-22T11:57:04.158Z,2.50
2022-08-22T11:58:04.140Z,2.10
2022-08-22T11:59:04.084Z,2.00
2022-08-22T12:00:04.103Z,2.30
2022-08-22T12:01:04.071Z,2.40
2022-08-22T12:02:04.275Z,2.30
2022-08-22T12:03:04.061Z,2.50
2022-08-22T12:04:04.144Z,2.30
2022-08-22T12:05:03.999Z,2.30
2022-08-22T12:06:03.978Z,2.50
2022-08-22T12:07:04.011Z,2.30
2022-08-22T12:08:04.022Z,2.60
2022-08-22T12:09:04.152Z,2.70
2022-08-22T12:10:03.955Z,2.30
2022-08-22T12:11:04.002Z,2.10
2022-08-22T12:12:04.740Z,2.30
2022-08-22T12:13:03.899Z,2.20
2022-08-22T12:14:06.216Z,2.50
2022-08-22T12:15:03.912Z,2.40
2022-08-22T12:16:04.037Z,2.30
2022-08-22T12:17:03.823Z,2.40
2022-08-22T12:18:03.877Z,2.90
2022-08-22T12:19:03.844Z,3.60
2022-08-22T12:20:18.919Z,3.00
2022-08-22T12:21:04.821Z,2.60
2022-08-22T12:22:04.086Z,2.50
2022-08-22T12:23:04.138Z,2.40
2022-08-22T12:24:06.321Z,2.40
2022-08-22T12:25:04.896Z,2.50
2022-08-22T12:26:04.912Z,2.80
2022-08-22T12:27:06.463Z,2.70
2022-08-22T12:28:03.764Z,2.30
2022-08-22T12:29:03.695Z,2.50
2022-08-22T12:30:03.674Z,2.20
2022-08-22T12:31:03.728Z,2.70
2022-08-22T12:32:03.675Z,2.50
2022-08-22T12:33:03.629Z,2.40
2022-08-22T12:34:03.647Z,2.80
2022-08-22T12:35:03.576Z,2.30
2022-08-22T12:36:04.893Z,2.20
2022-08-22T12:37:03.596Z,2.50
2022-08-22T12:38:03.831Z,2.30
2022-08-22T12:39:04.585Z,2.50
2022-08-22T12:40:03.563Z,2.20
2022-08-22T12:41:03.509Z,2.50
2022-08-22T12:42:04.143Z,2.40
2022-08-22T12:43:03.567Z,2.20
2022-08-22T12:44:03.471Z,2.60
2022-08-22T12:45:03.626Z,2.20
2022-08-22T12:46:03.468Z,2.40
2022-08-22T12:47:04.231Z,2.30
2022-08-22T12:48:03.713Z,3.00
2022-08-22T12:49:07.684Z,2.60
2022-08-22T12:50:03.397Z,2.00
2022-08-22T12:51:03.442Z,2.20
2022-08-22T12:52:04.822Z,2.30
2022-08-22T12:53:03.409Z,2.40
2022-08-22T12:54:04.545Z,2.40
2022-08-22T12:55:03.321Z,2.40
2022-08-22T12:56:03.341Z,2.40
2022-08-22T12:57:03.327Z,2.30
2022-08-22T12:58:04.565Z,1.90
2022-08-22T12:59:03.333Z,2.40
2022-08-22T13:00:03.344Z,2.40
2022-08-22T13:01:03.322Z,2.10
2022-08-22T13:02:03.332Z,2.50
2022-08-22T13:03:03.234Z,2.20
2022-08-22T13:04:03.471Z,2.00
2022-08-22T13:05:03.318Z,2.20
2022-08-22T13:06:03.224Z,2.50
2022-08-22T13:07:03.384Z,2.20
2022-08-22T13:08:04.578Z,2.00
2022-08-22T13:09:03.274Z,2.30
2022-08-22T13:10:04.192Z,2.10
2022-08-22T13:11:03.201Z,1.80
2022-08-22T13:12:04.121Z,2.40
2022-08-22T13:13:03.938Z,1.50